Time;durP1;ratioP1;P1;durP2;ratioP2;P2;SDS_P1;SDS_P2;PMS_P1;PMS_P2;Temp;Humidity;BMP_temperature;BMP_pressure;BME280_temperature;BME280_humidity;BME280_pressure;Samples;Min_cycle;Max_cycle;Signal;HPM_P1;HPM_P2
2022/08/11 00:01:07;;;;;;;5.97;3.80;;;;;;;;;;10365830;28;20549;-78
2022/08/11 00:06:08;;;;;;;4.93;3.77;;;;;;;;;;10376930;28;20045;-76
2022/08/11 00:11:11;;;;;;;4.07;3.55;;;;;;;;;;10360683;28;20285;-79
2022/08/11 00:16:18;;;;;;;3.90;3.60;;;;;;;;;;10376702;28;20062;-78
2022/08/11 00:21:20;;;;;;;5.47;3.38;;;;;;;;;;10365032;28;20402;-78
2022/08/11 00:26:21;;;;;;;4.07;3.70;;;;;;;;;;10359349;28;20112;-77
2022/08/11 00:31:29;;;;;;;3.97;3.58;;;;;;;;;;10338557;28;20046;-77
2022/08/11 00:36:38;;;;;;;4.18;3.78;;;;;;;;;;10359670;28;20050;-77
2022/08/11 00:41:46;;;;;;;5.45;3.50;;;;;;;;;;10350733;28;20128;-77
2022/08/11 00:46:58;;;;;;;4.38;3.83;;;;;;;;;;10359508;28;20140;-78
2022/08/11 00:52:08;;;;;;;4.90;3.90;;;;;;;;;;10338996;28;20067;-78
2022/08/11 00:57:21;;;;;;;4.25;3.85;;;;;;;;;;10352142;28;20052;-77
2022/08/11 01:02:40;;;;;;;4.88;3.80;;;;;;;;;;10349307;28;20121;-77
2022/08/11 01:07:58;;;;;;;3.97;3.53;;;;;;;;;;10337821;28;20633;-77
2022/08/11 01:13:22;;;;;;;5.35;4.13;;;;;;;;;;10354408;28;20042;-78
2022/08/11 01:18:35;;;;;;;5.50;3.83;;;;;;;;;;10315970;28;20169;-77
2022/08/11 01:23:53;;;;;;;4.40;4.00;;;;;;;;;;10341187;28;20870;-78
2022/08/11 01:29:13;;;;;;;3.95;3.65;;;;;;;;;;10360954;28;20056;-77
2022/08/11 01:34:19;;;;;;;5.25;3.78;;;;;;;;;;10364414;28;20040;-77
2022/08/11 01:39:20;;;;;;;4.15;3.78;;;;;;;;;;10365404;28;20588;-77
2022/08/11 01:44:39;;;;;;;5.93;3.80;;;;;;;;;;10362434;28;20100;-77
2022/08/11 01:49:55;;;;;;;5.82;4.40;;;;;;;;;;10362587;28;20700;-78
2022/08/11 01:55:02;;;;;;;6.20;4.50;;;;;;;;;;10358065;28;20077;-77
2022/08/11 02:00:07;;;;;;;4.97;4.05;;;;;;;;;;10360424;28;20054;-79
2022/08/11 02:05:28;;;;;;;4.53;4.20;;;;;;;;;;10361522;28;20045;-78
2022/08/11 02:16:37;;;;;;;5.13;4.63;;;;;;;;;;10358147;28;20053;-78
2022/08/11 02:27:14;;;;;;;4.25;3.90;;;;;;;;;;10359252;28;20053;-77
2022/08/11 02:37:55;;;;;;;4.60;4.20;;;;;;;;;;10355580;28;20473;-77
2022/08/11 02:43:06;;;;;;;4.68;4.28;;;;;;;;;;10295366;28;20057;-78
2022/08/11 02:53:36;;;;;;;4.95;4.40;;;;;;;;;;10329268;28;20177;-78
2022/08/11 02:59:48;;;;;;;4.60;4.10;;;;;;;;;;10353281;28;20664;-78
2022/08/11 03:04:17;;;;;;;4.75;4.22;;;;;;;;;;10350868;28;20045;-77
2022/08/11 03:09:36;;;;;;;4.78;4.38;;;;;;;;;;10366566;28;20110;-77
2022/08/11 03:20:40;;;;;;;5.25;4.32;;;;;;;;;;10342992;28;20037;-78
2022/08/11 03:25:48;;;;;;;5.10;4.60;;;;;;;;;;10351584;28;20038;-77
2022/08/11 03:30:50;;;;;;;4.68;4.25;;;;;;;;;;10349066;28;20065;-77
2022/08/11 03:36:04;;;;;;;5.38;4.30;;;;;;;;;;10335690;28;20042;-77
2022/08/11 03:46:44;;;;;;;4.38;4.07;;;;;;;;;;10357491;28;20034;-77
2022/08/11 03:52:06;;;;;;;4.82;4.40;;;;;;;;;;10360822;28;20057;-77
2022/08/11 03:57:35;;;;;;;4.75;4.30;;;;;;;;;;10356881;28;20478;-78
2022/08/11 04:03:01;;;;;;;5.30;4.80;;;;;;;;;;10350298;28;20423;-77
2022/08/11 04:08:10;;;;;;;5.15;4.68;;;;;;;;;;10361817;28;20060;-78
2022/08/11 04:13:13;;;;;;;4.93;4.53;;;;;;;;;;10355333;28;20073;-78
2022/08/11 04:18:29;;;;;;;5.88;5.20;;;;;;;;;;10360263;28;20500;-77
2022/08/11 04:23:29;;;;;;;6.55;5.65;;;;;;;;;;10341946;28;20045;-78
2022/08/11 04:28:48;;;;;;;6.07;5.47;;;;;;;;;;10360346;28;20120;-77
2022/08/11 04:34:16;;;;;;;5.95;5.35;;;;;;;;;;10367221;28;20105;-77
2022/08/11 04:39:21;;;;;;;5.97;5.40;;;;;;;;;;10365132;28;20045;-78
2022/08/11 04:44:33;;;;;;;5.85;5.35;;;;;;;;;;10368667;28;20200;-78
2022/08/11 05:06:08;;;;;;;5.32;4.78;;;;;;;;;;10361690;28;20041;-78
2022/08/11 05:11:14;;;;;;;5.07;4.67;;;;;;;;;;10336667;28;20045;-78
2022/08/11 05:59:18;;;;;;;6.57;4.50;;;;;;;;;;10354051;28;20810;-77
2022/08/11 06:04:23;;;;;;;5.88;4.57;;;;;;;;;;10358352;28;20137;-78
2022/08/11 06:09:28;;;;;;;6.88;4.70;;;;;;;;;;10359096;28;20058;-78
2022/08/11 06:15:06;;;;;;;4.72;4.15;;;;;;;;;;10361419;28;20053;-77
2022/08/11 06:20:46;;;;;;;5.20;3.78;;;;;;;;;;10357429;28;20037;-77
2022/08/11 06:26:19;;;;;;;5.60;4.03;;;;;;;;;;10344790;28;20046;-78
2022/08/11 06:32:01;;;;;;;4.60;3.40;;;;;;;;;;10357242;28;20120;-77
2022/08/11 06:37:45;;;;;;;6.13;3.90;;;;;;;;;;10357371;28;20421;-77
2022/08/11 06:43:19;;;;;;;7.13;3.70;;;;;;;;;;10360611;28;20046;-78
2022/08/11 06:48:51;;;;;;;;;;;;;;;;;;10375125;28;20050;-77
2022/08/11 06:54:24;;;;;;;5.20;3.67;;;;;;;;;;10391317;28;19909;-76
